ADDS METAR Data INFO
IDs: Format: Raw Decoded Include TAF

Data at: 0405 UTC 11 Dec 2017

KGJT 110353Z 00000KT 10SM CLR M06/M17 A3051 RMK AO2 SLP367 T10561167 $
KGJT 110253Z 00000KT 10SM CLR M04/M17 A3051 RMK AO2 SLP374 T10391167 53005 $
KGJT 110153Z 00000KT 10SM CLR M02/M16 A3049 RMK AO2 SLP363 T10221161 $
KGJT 110053Z 05003KT 10SM CLR M01/M16 A3049 RMK AO2 SLP360 T10061161 $
KGJT 102353Z 25003KT 10SM CLR 07/M14 A3049 RMK AO2 SLP338 T00671139 10089 20039 55008 $
KGJT 102253Z 30003KT 10SM CLR 08/M15 A3049 RMK AO2 SLP338 T00831150 $
KGJT 102153Z 00000KT 10SM CLR 09/M15 A3050 RMK AO2 SLP342 T00891150 $
KGJT 102053Z 00000KT 10SM CLR 08/M15 A3052 RMK AO2 SLP349 T00781150 58025 $
KGJT 101953Z VRB03KT 10SM CLR 06/M15 A3055 RMK AO2 SLP357 T00611150 $
KGJT 101853Z 16007KT 10SM CLR 04/M14 A3058 RMK AO2 SLP375 T00441144 $
KGJT 101753Z 13006KT 10SM CLR 03/M13 A3060 RMK AO2 SLP384 T00331133 10033 21083 50002 $
KGJT 101653Z 16009KT 10SM CLR 01/M14 A3061 RMK AO2 SLP389 T00061144 $
KGJT 101553Z 11004KT 10SM CLR M03/M13 A3061 RMK AO2 SLP396 T10281133 $
KGJT 101453Z 12005KT 10SM CLR M07/M14 A3060 RMK AO2 SLP397 T10721144 53006 $
KGJT 101353Z 09006KT 10SM CLR M07/M14 A3058 RMK AO2 SLP393 T10721144 $
KGJT 101253Z AUTO 10005KT 10SM CLR M07/M15 A3058 RMK AO2 SLP390 T10721150 $
KGJT 101153Z AUTO 10006KT 10SM CLR M05/M14 A3058 RMK AO2 SLP372 T10501144 11028 21089 51002 $
KGJT 101053Z AUTO 08006KT 10SM CLR M07/M15 A3058 RMK AO2 SLP368 T10721150 $
KGJT 100953Z AUTO 00000KT 10SM CLR M07/M15 A3057 RMK AO2 SLP367 T10721150 $
KGJT 100853Z AUTO 10004KT 10SM CLR M07/M15 A3057 RMK AO2 SLP370 T10721150 53004 $
KGJT 100753Z AUTO 09008KT 10SM CLR M04/M13 A3056 RMK AO2 SLP363 T10391133 $
KGJT 100653Z AUTO 12004KT 10SM CLR M06/M14 A3056 RMK AO2 SLP367 T10561144 400891078 $
KGJT 100553Z AUTO 07008KT 10SM CLR M04/M14 A3056 RMK AO2 SLP368 T10441139 10050 21056 51010 $
KGJT 100453Z AUTO 09004KT 10SM CLR M03/M14 A3055 RMK AO2 SLP367 T10331139 $
KGJT 100353Z 08006KT 10SM CLR M03/M13 A3054 RMK AO2 SLP371 T10281133 $
KGJT 100253Z 08005KT 10SM CLR M01/M13 A3052 RMK AO2 SLP368 T10111133 53014 $
KGJT 100153Z 05004KT 10SM CLR M01/M13 A3050 RMK AO2 SLP362 T10111133 $
KGJT 100053Z 05003KT 10SM CLR M01/M14 A3049 RMK AO2 SLP359 T10111144 $
KGJT 092353Z 29004KT 10SM CLR 05/M12 A3048 RMK AO2 SLP339 T00501122 10089 20033 55004 $
KGJT 092253Z 30003KT 10SM CLR 09/M12 A3047 RMK AO2 SLP328 T00891117 $
KGJT 092153Z 00000KT 10SM CLR 09/M12 A3048 RMK AO2 SLP328 T00891117 $
KGJT 092053Z 18004KT 10SM CLR 07/M11 A3049 RMK AO2 SLP335 T00721111 58025 $
KGJT 091953Z 16003KT 10SM CLR 06/M11 A3052 RMK AO2 SLP350 T00611111 $
KGJT 091853Z 18006KT 10SM CLR 05/M11 A3055 RMK AO2 SLP360 T00501111 $
KGJT 091753Z 15005KT 10SM CLR 03/M11 A3058 RMK AO2 SLP369 T00331106 10033 21078 50000 $
KGJT 091653Z 15009KT 10SM CLR 01/M10 A3059 RMK AO2 SLP378 T00111100 $